Tokuyo Maru No.15 — JD2184 — position and weather

sailwx.info

Track history (hours):
 
Tides and Currents Weather Stations Pressure Air Temp Water Temp Dewpoint Dewpoint Depression Visibility Wind Speed Wind Dir Waves Ship Positions

Tokuyo Maru No.15

Last reported at 2014-Jul-27 11:33 UTC. Time now 2014-Jul-31 11:27 UTC.
Position N 35°05' E 139°36'.

Length 66 m; draft 4.5 m.

Type: Tanker. MMSI: 431402034.

Date/timePositionNaut miles runAvg speedWind from/ knotsBaromVisibWave heightAir tempDewpointWater temp
2014-Jul-27 11:33N 35°05' E 139°36'1211.8
2014-Jul-27 10:33N 35°13' E 139°46'1111.3
2014-Jul-27 09:33N 35°24' E 139°43'1211.9
2014-Jul-27 08:33N 35°31' E 139°54'7 6.5
2014-Jul-27 07:32N 35°31' E 140°03'0 0.0
2014-Jul-27 06:32N 35°31' E 140°03'0 0.0
2014-Jul-27 05:32N 35°31' E 140°03'0 0.0
2014-Jul-27 04:32N 35°31' E 140°03'1 1.2
2014-Jul-27 03:29N 35°31' E 140°01'0 0.0
2014-Jul-27 02:32N 35°31' E 140°01'0 0.0
2014-Jul-27 01:29N 35°31' E 140°01'0 0.0
2014-Jul-27 00:32N 35°31' E 140°01'0 0.0
2014-Jul-26 23:29N 35°31' E 140°01'0 0.0
2014-Jul-26 22:32N 35°31' E 140°01'0 0.0
2014-Jul-26 21:23N 35°31' E 140°01'0 0.0
2014-Jul-26 20:23N 35°31' E 140°01'0 0.0
2014-Jul-26 19:32N 35°31' E 140°01'0 0.0
2014-Jul-26 18:29N 35°31' E 140°01'0 0.0
2014-Jul-26 17:32N 35°31' E 140°01'0 0.0
2014-Jul-26 16:29N 35°31' E 140°01'0 0.0
2014-Jul-26 15:32N 35°31' E 140°01'0 0.0
2014-Jul-26 14:32N 35°31' E 140°01'0 0.0
2014-Jul-26 13:32N 35°31' E 140°01'0 0.0
2014-Jul-26 12:32N 35°31' E 140°01'0 0.0
2014-Jul-26 11:23N 35°31' E 140°01'0 0.0
2014-Jul-26 10:17N 35°31' E 140°01'0 0.0
2014-Jul-26 09:29N 35°31' E 140°01'0 0.0
2014-Jul-26 08:32N 35°31' E 140°01'0 0.0
2014-Jul-26 07:32N 35°31' E 140°01'1 1.2
2014-Jul-26 06:33N 35°31' E 140°03'0 0.0
2014-Jul-26 05:33N 35°31' E 140°03'0 0.0
2014-Jul-26 04:33N 35°31' E 140°03'0 0.0
2014-Jul-26 03:30N 35°31' E 140°03'0 0.0
2014-Jul-26 02:33N 35°31' E 140°03'0 0.0
2014-Jul-26 01:30N 35°31' E 140°03'0 0.0
2014-Jul-26 00:33N 35°31' E 140°03'1 0.7
2014-Jul-25 23:33N 35°31' E 140°02'6 5.9
2014-Jul-25 22:32N 35°29' E 139°55'0 0.0
2014-Jul-25 21:32N 35°29' E 139°55'0 0.0
2014-Jul-25 20:32N 35°29' E 139°55'0 0.0
2014-Jul-25 19:29N 35°29' E 139°55'0 0.0
2014-Jul-25 18:32N 35°29' E 139°55'0 0.0
2014-Jul-25 17:32N 35°29' E 139°55'0 0.0
2014-Jul-25 16:32N 35°29' E 139°55'0 0.0
2014-Jul-25 15:32N 35°29' E 139°55'0 0.0
2014-Jul-25 14:32N 35°29' E 139°55'0 0.0
2014-Jul-25 13:29N 35°29' E 139°55'0 0.0
2014-Jul-25 12:32N 35°29' E 139°55'0 0.0
2014-Jul-25 11:32N 35°29' E 139°55'0 0.0
2014-Jul-25 10:32N 35°29' E 139°55'0 0.0
2014-Jul-25 09:32N 35°29' E 139°55'0 0.0
2014-Jul-25 08:32N 35°29' E 139°55'0 0.0
2014-Jul-25 07:32N 35°29' E 139°55'0 0.0
2014-Jul-25 06:29N 35°29' E 139°55'0 0.0
2014-Jul-25 05:32N 35°29' E 139°55'0 0.0
2014-Jul-25 04:32N 35°29' E 139°55'0 0.0
2014-Jul-25 03:32N 35°29' E 139°55'0 0.0
2014-Jul-25 02:32N 35°29' E 139°55'0 0.0
2014-Jul-25 01:32N 35°29' E 139°55'0 0.0
2014-Jul-25 00:26N 35°29' E 139°55'0 0.0
2014-Jul-24 23:29N 35°29' E 139°55'0 0.0
2014-Jul-24 22:32N 35°29' E 139°55'0 0.0
2014-Jul-24 21:32N 35°29' E 139°55'0 0.0
2014-Jul-24 20:32N 35°29' E 139°55'0 0.0
2014-Jul-24 19:32N 35°29' E 139°55'0 0.0
2014-Jul-24 18:29N 35°29' E 139°55'0 0.0
2014-Jul-24 17:32N 35°29' E 139°55'0 0.0
2014-Jul-24 16:32N 35°29' E 139°55'0 0.0
2014-Jul-24 15:29N 35°29' E 139°55'0 0.0
2014-Jul-24 14:32N 35°29' E 139°55'0 0.0
2014-Jul-24 13:32N 35°29' E 139°55'0 0.0
2014-Jul-24 12:32N 35°29' E 139°55'0 0.0
2014-Jul-24 11:32N 35°29' E 139°55'0 0.0
2014-Jul-24 10:20N 35°29' E 139°55'0 0.0
2014-Jul-24 09:32N 35°29' E 139°55'0 0.0
2014-Jul-24 08:32N 35°29' E 139°55'0 0.0
2014-Jul-24 07:32N 35°29' E 139°55'0 0.0
2014-Jul-24 06:32N 35°29' E 139°55'0 0.0
2014-Jul-24 05:32N 35°29' E 139°55'0 0.0
2014-Jul-24 04:32N 35°29' E 139°55'0 0.0
2014-Jul-24 03:32N 35°29' E 139°55'0 0.0
2014-Jul-24 02:32N 35°29' E 139°55'0 0.0
2014-Jul-24 01:32N 35°29' E 139°55'0 0.0
2014-Jul-24 00:32N 35°29' E 139°55'0 0.0
2014-Jul-23 23:26N 35°29' E 139°55'0 0.0
2014-Jul-23 22:32N 35°29' E 139°55'0 0.0
2014-Jul-23 21:32N 35°29' E 139°55'0 0.0
2014-Jul-23 20:32N 35°29' E 139°55'0 0.0
2014-Jul-23 19:32N 35°29' E 139°55'0 0.0
2014-Jul-23 18:29N 35°29' E 139°55'0 0.0
2014-Jul-23 17:29N 35°29' E 139°55'0 0.0
2014-Jul-23 16:32N 35°29' E 139°55'0 0.0
2014-Jul-23 15:32N 35°29' E 139°55'0 0.0
2014-Jul-23 14:32N 35°29' E 139°55'0 0.0
2014-Jul-23 13:32N 35°29' E 139°55'0 0.0
2014-Jul-23 12:32N 35°29' E 139°55'0 0.0
2014-Jul-23 11:32N 35°29' E 139°55'0 0.0
2014-Jul-23 10:32N 35°29' E 139°55'0 0.0
2014-Jul-23 09:32N 35°29' E 139°55'0 0.0
2014-Jul-23 08:32N 35°29' E 139°55'0 0.0
2014-Jul-23 07:32N 35°29' E 139°55'0 0.0
2014-Jul-23 06:32N 35°29' E 139°55'0 0.0
2014-Jul-23 05:32N 35°29' E 139°55'0 0.0
2014-Jul-23 04:32N 35°29' E 139°55'0 0.0
2014-Jul-23 03:32N 35°29' E 139°55'0 0.0
2014-Jul-23 02:32N 35°29' E 139°55'0 0.0
2014-Jul-23 01:32N 35°29' E 139°55'3 2.7
2014-Jul-23 00:33N 35°28' E 139°52'1211.8
2014-Jul-22 23:33N 35°18' E 139°45'1211.9
2014-Jul-22 22:33N 35°06' E 139°46'5 5.1
2014-Jul-22 21:28N 35°01' E 139°49'0 0.0
2014-Jul-22 20:22N 35°01' E 139°49'0 0.0
2014-Jul-22 19:28N 35°01' E 139°49'0 0.0
2014-Jul-22 18:22N 35°01' E 139°49'0 0.0
2014-Jul-22 17:22N 35°01' E 139°49'0 0.0
2014-Jul-22 16:28N 35°01' E 139°49'0 0.0
2014-Jul-22 15:28N 35°01' E 139°49'4 4.9
2014-Jul-22 14:34N 34°59' E 139°45'18 8.0
2014-Jul-22 12:21N 34°59' E 140°06'2611.5
2014-Jul-22 10:06N 35°15' E 140°30'41 8.9
2014-Jul-22 05:29N 35°55' E 140°41'2 1.4
2014-Jul-22 04:19N 35°54' E 140°41'0 0.0
2014-Jul-22 01:07N 35°54' E 140°41'2 2.7
2014-Jul-22 00:31N 35°55' E 140°41'7 6.9
2014-Jul-21 23:32N 35°52' E 140°49'3110.5
2014-Jul-21 20:32N 35°23' E 140°37'312.3
2014-Jul-21 20:17N 35°20' E 140°34'811.7
2014-Jul-21 19:33N 35°13' E 140°28'1211.7
2014-Jul-21 18:30N 35°04' E 140°18'1311.6
2014-Jul-21 17:23N 34°57' E 140°04'1411.5
2014-Jul-21 16:09N 34°54' E 139°48'812.9
2014-Jul-21 15:33N 35°01' E 139°44'1212.1
2014-Jul-21 14:33N 35°13' E 139°47'1111.5
2014-Jul-21 13:33N 35°24' E 139°43'1211.9
2014-Jul-21 12:33N 35°31' E 139°55'6 5.9
2014-Jul-21 11:32N 35°31' E 140°03'0 0.0
2014-Jul-21 10:32N 35°31' E 140°03'0 0.0
2014-Jul-21 09:32N 35°31' E 140°03'0 0.0
2014-Jul-21 08:32N 35°31' E 140°03'0 0.0
2014-Jul-21 07:32N 35°31' E 140°03'5 5.0
2014-Jul-21 06:34N 35°30' E 139°57'2 1.9
2014-Jul-21 05:33N 35°29' E 139°55'0 0.0
2014-Jul-21 04:33N 35°29' E 139°55'0 0.0
2014-Jul-21 03:33N 35°29' E 139°55'0 0.0
2014-Jul-21 02:33N 35°29' E 139°55'0 0.0
2014-Jul-21 01:24N 35°29' E 139°55'0 0.0
2014-Jul-21 00:33N 35°29' E 139°55'0 0.0
2014-Jul-20 23:33N 35°29' E 139°55'0 0.0
2014-Jul-20 22:33N 35°29' E 139°55'0 0.0
2014-Jul-20 21:33N 35°29' E 139°55'0 0.0
2014-Jul-20 20:33N 35°29' E 139°55'0 0.0
2014-Jul-20 19:33N 35°29' E 139°55'0 0.0
2014-Jul-20 18:30N 35°29' E 139°55'0 0.0
2014-Jul-20 17:33N 35°29' E 139°55'0 0.0
2014-Jul-20 16:33N 35°29' E 139°55'0 0.0
2014-Jul-20 15:30N 35°29' E 139°55'1 0.7
2014-Jul-20 14:33N 35°29' E 139°54'1212.0
2014-Jul-20 13:33N 35°20' E 139°44'1111.3
2014-Jul-20 12:33N 35°08' E 139°45'1312.8
2014-Jul-20 11:33N 34°60' E 139°33'23 0.5
2014-Jul-18 16:21N 34°48' E 139°09'2110.9
2014-Jul-18 14:27N 35°01' E 139°28'1112.0
2014-Jul-18 13:33N 35°07' E 139°40'1111.2
2014-Jul-18 12:34N 35°17' E 139°45'1010.4
2014-Jul-18 11:34N 35°27' E 139°47'1212.4
2014-Jul-18 10:34N 35°32' E 140°01'2 1.7
2014-Jul-18 09:30N 35°32' E 140°03'0 0.0
2014-Jul-18 08:30N 35°32' E 140°03'0 0.1
2014-Jul-18 07:31N 35°32' E 140°03'2 2.4
2014-Jul-18 06:33N 35°31' E 140°01'0 0.0
2014-Jul-18 05:33N 35°31' E 140°01'0 0.0
2014-Jul-18 04:33N 35°31' E 140°01'0 0.0
2014-Jul-18 03:30N 35°31' E 140°01'0 0.0
2014-Jul-18 02:33N 35°31' E 140°01'0 0.0
2014-Jul-18 01:24N 35°31' E 140°01'0 0.0
2014-Jul-18 00:33N 35°31' E 140°01'0 0.0
2014-Jul-17 23:33N 35°31' E 140°01'0 0.0
2014-Jul-17 22:33N 35°31' E 140°01'0 0.0
2014-Jul-17 21:30N 35°31' E 140°01'0 0.0
2014-Jul-17 20:30N 35°31' E 140°01'0 0.0
2014-Jul-17 19:30N 35°31' E 140°01'0 0.0
2014-Jul-17 18:33N 35°31' E 140°01'0 0.0
2014-Jul-17 17:30N 35°31' E 140°01'0 0.0
2014-Jul-17 16:30N 35°31' E 140°01'0 0.0
2014-Jul-17 15:33N 35°31' E 140°01'0 0.0
2014-Jul-17 14:30N 35°31' E 140°01'0 0.0
2014-Jul-17 13:33N 35°31' E 140°01'0 0.0
2014-Jul-17 12:33N 35°31' E 140°01'  
Track history (hours):
 
Tides and Currents Weather Stations Pressure Air Temp Water Temp Dewpoint Dewpoint Depression Visibility Wind Speed Wind Dir Waves Ship Positions

Tokuyo Maru No.15

Last reported at 2014-Jul-27 11:33 UTC. Time now 2014-Jul-31 11:27 UTC.
Position N 35°05' E 139°36'.

Length 66 m; draft 4.5 m.

Type: Tanker. MMSI: 431402034.

Date/timePositionNaut miles runAvg speedWind from/ knotsBaromVisibWave heightAir tempDewpointWater temp
2014-Jul-27 11:33N 35°05' E 139°36'1211.8
2014-Jul-27 10:33N 35°13' E 139°46'1111.3
2014-Jul-27 09:33N 35°24' E 139°43'1211.9
2014-Jul-27 08:33N 35°31' E 139°54'7 6.5
2014-Jul-27 07:32N 35°31' E 140°03'0 0.0
2014-Jul-27 06:32N 35°31' E 140°03'0 0.0
2014-Jul-27 05:32N 35°31' E 140°03'0 0.0
2014-Jul-27 04:32N 35°31' E 140°03'1 1.2
2014-Jul-27 03:29N 35°31' E 140°01'0 0.0
2014-Jul-27 02:32N 35°31' E 140°01'0 0.0
2014-Jul-27 01:29N 35°31' E 140°01'0 0.0
2014-Jul-27 00:32N 35°31' E 140°01'0 0.0
2014-Jul-26 23:29N 35°31' E 140°01'0 0.0
2014-Jul-26 22:32N 35°31' E 140°01'0 0.0
2014-Jul-26 21:23N 35°31' E 140°01'0 0.0
2014-Jul-26 20:23N 35°31' E 140°01'0 0.0
2014-Jul-26 19:32N 35°31' E 140°01'0 0.0
2014-Jul-26 18:29N 35°31' E 140°01'0 0.0
2014-Jul-26 17:32N 35°31' E 140°01'0 0.0
2014-Jul-26 16:29N 35°31' E 140°01'0 0.0
2014-Jul-26 15:32N 35°31' E 140°01'0 0.0
2014-Jul-26 14:32N 35°31' E 140°01'0 0.0
2014-Jul-26 13:32N 35°31' E 140°01'0 0.0
2014-Jul-26 12:32N 35°31' E 140°01'0 0.0
2014-Jul-26 11:23N 35°31' E 140°01'0 0.0
2014-Jul-26 10:17N 35°31' E 140°01'0 0.0
2014-Jul-26 09:29N 35°31' E 140°01'0 0.0
2014-Jul-26 08:32N 35°31' E 140°01'0 0.0
2014-Jul-26 07:32N 35°31' E 140°01'1 1.2
2014-Jul-26 06:33N 35°31' E 140°03'0 0.0
2014-Jul-26 05:33N 35°31' E 140°03'0 0.0
2014-Jul-26 04:33N 35°31' E 140°03'0 0.0
2014-Jul-26 03:30N 35°31' E 140°03'0 0.0
2014-Jul-26 02:33N 35°31' E 140°03'0 0.0
2014-Jul-26 01:30N 35°31' E 140°03'0 0.0
2014-Jul-26 00:33N 35°31' E 140°03'1 0.7
2014-Jul-25 23:33N 35°31' E 140°02'6 5.9
2014-Jul-25 22:32N 35°29' E 139°55'0 0.0
2014-Jul-25 21:32N 35°29' E 139°55'0 0.0
2014-Jul-25 20:32N 35°29' E 139°55'0 0.0
2014-Jul-25 19:29N 35°29' E 139°55'0 0.0
2014-Jul-25 18:32N 35°29' E 139°55'0 0.0
2014-Jul-25 17:32N 35°29' E 139°55'0 0.0
2014-Jul-25 16:32N 35°29' E 139°55'0 0.0
2014-Jul-25 15:32N 35°29' E 139°55'0 0.0
2014-Jul-25 14:32N 35°29' E 139°55'0 0.0
2014-Jul-25 13:29N 35°29' E 139°55'0 0.0
2014-Jul-25 12:32N 35°29' E 139°55'0 0.0
2014-Jul-25 11:32N 35°29' E 139°55'0 0.0
2014-Jul-25 10:32N 35°29' E 139°55'0 0.0
2014-Jul-25 09:32N 35°29' E 139°55'0 0.0
2014-Jul-25 08:32N 35°29' E 139°55'0 0.0
2014-Jul-25 07:32N 35°29' E 139°55'0 0.0
2014-Jul-25 06:29N 35°29' E 139°55'0 0.0
2014-Jul-25 05:32N 35°29' E 139°55'0 0.0
2014-Jul-25 04:32N 35°29' E 139°55'0 0.0
2014-Jul-25 03:32N 35°29' E 139°55'0 0.0
2014-Jul-25 02:32N 35°29' E 139°55'0 0.0
2014-Jul-25 01:32N 35°29' E 139°55'0 0.0
2014-Jul-25 00:26N 35°29' E 139°55'0 0.0
2014-Jul-24 23:29N 35°29' E 139°55'0 0.0
2014-Jul-24 22:32N 35°29' E 139°55'0 0.0
2014-Jul-24 21:32N 35°29' E 139°55'0 0.0
2014-Jul-24 20:32N 35°29' E 139°55'0 0.0
2014-Jul-24 19:32N 35°29' E 139°55'0 0.0
2014-Jul-24 18:29N 35°29' E 139°55'0 0.0
2014-Jul-24 17:32N 35°29' E 139°55'0 0.0
2014-Jul-24 16:32N 35°29' E 139°55'0 0.0
2014-Jul-24 15:29N 35°29' E 139°55'0 0.0
2014-Jul-24 14:32N 35°29' E 139°55'0 0.0
2014-Jul-24 13:32N 35°29' E 139°55'0 0.0
2014-Jul-24 12:32N 35°29' E 139°55'0 0.0
2014-Jul-24 11:32N 35°29' E 139°55'0 0.0
2014-Jul-24 10:20N 35°29' E 139°55'0 0.0
2014-Jul-24 09:32N 35°29' E 139°55'0 0.0
2014-Jul-24 08:32N 35°29' E 139°55'0 0.0
2014-Jul-24 07:32N 35°29' E 139°55'0 0.0
2014-Jul-24 06:32N 35°29' E 139°55'0 0.0
2014-Jul-24 05:32N 35°29' E 139°55'0 0.0
2014-Jul-24 04:32N 35°29' E 139°55'0 0.0
2014-Jul-24 03:32N 35°29' E 139°55'0 0.0
2014-Jul-24 02:32N 35°29' E 139°55'0 0.0
2014-Jul-24 01:32N 35°29' E 139°55'0 0.0
2014-Jul-24 00:32N 35°29' E 139°55'0 0.0
2014-Jul-23 23:26N 35°29' E 139°55'0 0.0
2014-Jul-23 22:32N 35°29' E 139°55'0 0.0
2014-Jul-23 21:32N 35°29' E 139°55'0 0.0
2014-Jul-23 20:32N 35°29' E 139°55'0 0.0
2014-Jul-23 19:32N 35°29' E 139°55'0 0.0
2014-Jul-23 18:29N 35°29' E 139°55'0 0.0
2014-Jul-23 17:29N 35°29' E 139°55'0 0.0
2014-Jul-23 16:32N 35°29' E 139°55'0 0.0
2014-Jul-23 15:32N 35°29' E 139°55'0 0.0
2014-Jul-23 14:32N 35°29' E 139°55'0 0.0
2014-Jul-23 13:32N 35°29' E 139°55'0 0.0
2014-Jul-23 12:32N 35°29' E 139°55'0 0.0
2014-Jul-23 11:32N 35°29' E 139°55'0 0.0
2014-Jul-23 10:32N 35°29' E 139°55'0 0.0
2014-Jul-23 09:32N 35°29' E 139°55'0 0.0
2014-Jul-23 08:32N 35°29' E 139°55'0 0.0
2014-Jul-23 07:32N 35°29' E 139°55'0 0.0
2014-Jul-23 06:32N 35°29' E 139°55'0 0.0
2014-Jul-23 05:32N 35°29' E 139°55'0 0.0
2014-Jul-23 04:32N 35°29' E 139°55'0 0.0
2014-Jul-23 03:32N 35°29' E 139°55'0 0.0
2014-Jul-23 02:32N 35°29' E 139°55'0 0.0
2014-Jul-23 01:32N 35°29' E 139°55'3 2.7
2014-Jul-23 00:33N 35°28' E 139°52'1211.8
2014-Jul-22 23:33N 35°18' E 139°45'1211.9
2014-Jul-22 22:33N 35°06' E 139°46'5 5.1
2014-Jul-22 21:28N 35°01' E 139°49'0 0.0
2014-Jul-22 20:22N 35°01' E 139°49'0 0.0
2014-Jul-22 19:28N 35°01' E 139°49'0 0.0
2014-Jul-22 18:22N 35°01' E 139°49'0 0.0
2014-Jul-22 17:22N 35°01' E 139°49'0 0.0
2014-Jul-22 16:28N 35°01' E 139°49'0 0.0
2014-Jul-22 15:28N 35°01' E 139°49'4 4.9
2014-Jul-22 14:34N 34°59' E 139°45'18 8.0
2014-Jul-22 12:21N 34°59' E 140°06'2611.5
2014-Jul-22 10:06N 35°15' E 140°30'41 8.9
2014-Jul-22 05:29N 35°55' E 140°41'2 1.4
2014-Jul-22 04:19N 35°54' E 140°41'0 0.0
2014-Jul-22 01:07N 35°54' E 140°41'2 2.7
2014-Jul-22 00:31N 35°55' E 140°41'7 6.9
2014-Jul-21 23:32N 35°52' E 140°49'3110.5
2014-Jul-21 20:32N 35°23' E 140°37'312.3
2014-Jul-21 20:17N 35°20' E 140°34'811.7
2014-Jul-21 19:33N 35°13' E 140°28'1211.7
2014-Jul-21 18:30N 35°04' E 140°18'1311.6
2014-Jul-21 17:23N 34°57' E 140°04'1411.5
2014-Jul-21 16:09N 34°54' E 139°48'812.9
2014-Jul-21 15:33N 35°01' E 139°44'1212.1
2014-Jul-21 14:33N 35°13' E 139°47'1111.5
2014-Jul-21 13:33N 35°24' E 139°43'1211.9
2014-Jul-21 12:33N 35°31' E 139°55'6 5.9
2014-Jul-21 11:32N 35°31' E 140°03'0 0.0
2014-Jul-21 10:32N 35°31' E 140°03'0 0.0
2014-Jul-21 09:32N 35°31' E 140°03'0 0.0
2014-Jul-21 08:32N 35°31' E 140°03'0 0.0
2014-Jul-21 07:32N 35°31' E 140°03'5 5.0
2014-Jul-21 06:34N 35°30' E 139°57'2 1.9
2014-Jul-21 05:33N 35°29' E 139°55'0 0.0
2014-Jul-21 04:33N 35°29' E 139°55'0 0.0
2014-Jul-21 03:33N 35°29' E 139°55'0 0.0
2014-Jul-21 02:33N 35°29' E 139°55'0 0.0
2014-Jul-21 01:24N 35°29' E 139°55'0 0.0
2014-Jul-21 00:33N 35°29' E 139°55'0 0.0
2014-Jul-20 23:33N 35°29' E 139°55'0 0.0
2014-Jul-20 22:33N 35°29' E 139°55'0 0.0
2014-Jul-20 21:33N 35°29' E 139°55'0 0.0
2014-Jul-20 20:33N 35°29' E 139°55'0 0.0
2014-Jul-20 19:33N 35°29' E 139°55'0 0.0
2014-Jul-20 18:30N 35°29' E 139°55'0 0.0
2014-Jul-20 17:33N 35°29' E 139°55'0 0.0
2014-Jul-20 16:33N 35°29' E 139°55'0 0.0
2014-Jul-20 15:30N 35°29' E 139°55'1 0.7
2014-Jul-20 14:33N 35°29' E 139°54'1212.0
2014-Jul-20 13:33N 35°20' E 139°44'1111.3
2014-Jul-20 12:33N 35°08' E 139°45'1312.8
2014-Jul-20 11:33N 34°60' E 139°33'23 0.5
2014-Jul-18 16:21N 34°48' E 139°09'2110.9
2014-Jul-18 14:27N 35°01' E 139°28'1112.0
2014-Jul-18 13:33N 35°07' E 139°40'1111.2
2014-Jul-18 12:34N 35°17' E 139°45'1010.4
2014-Jul-18 11:34N 35°27' E 139°47'1212.4
2014-Jul-18 10:34N 35°32' E 140°01'2 1.7
2014-Jul-18 09:30N 35°32' E 140°03'0 0.0
2014-Jul-18 08:30N 35°32' E 140°03'0 0.1
2014-Jul-18 07:31N 35°32' E 140°03'2 2.4
2014-Jul-18 06:33N 35°31' E 140°01'0 0.0
2014-Jul-18 05:33N 35°31' E 140°01'0 0.0
2014-Jul-18 04:33N 35°31' E 140°01'0 0.0
2014-Jul-18 03:30N 35°31' E 140°01'0 0.0
2014-Jul-18 02:33N 35°31' E 140°01'0 0.0
2014-Jul-18 01:24N 35°31' E 140°01'0 0.0
2014-Jul-18 00:33N 35°31' E 140°01'0 0.0
2014-Jul-17 23:33N 35°31' E 140°01'0 0.0
2014-Jul-17 22:33N 35°31' E 140°01'0 0.0
2014-Jul-17 21:30N 35°31' E 140°01'0 0.0
2014-Jul-17 20:30N 35°31' E 140°01'0 0.0
2014-Jul-17 19:30N 35°31' E 140°01'0 0.0
2014-Jul-17 18:33N 35°31' E 140°01'0 0.0
2014-Jul-17 17:30N 35°31' E 140°01'0 0.0
2014-Jul-17 16:30N 35°31' E 140°01'0 0.0
2014-Jul-17 15:33N 35°31' E 140°01'0 0.0
2014-Jul-17 14:30N 35°31' E 140°01'0 0.0
2014-Jul-17 13:33N 35°31' E 140°01'0 0.0
2014-Jul-17 12:33N 35°31' E 140°01'  

Dump ship's entire track history